地図

経路データ

SID SEASON NUMBER BASIN SUBBASIN NAME ISO_TIME NATURE LAT LON WMO_WIND WMO_PRES WMO_AGENCY TRACK_TYPE DIST2LAND LANDFALL IFLAG USA_AGENCY USA_ATCF_ID USA_LAT USA_LON USA_RECORD USA_STATUS USA_WIND USA_PRES USA_SSHS USA_R34_NE USA_R34_SE USA_R34_SW USA_R34_NW USA_R50_NE USA_R50_SE USA_R50_SW USA_R50_NW USA_R64_NE USA_R64_SE USA_R64_SW USA_R64_NW USA_POCI USA_ROCI USA_RMW USA_EYE TOKYO_LAT TOKYO_LON TOKYO_GRADE TOKYO_WIND TOKYO_PRES TOKYO_R50_DIR TOKYO_R50_LONG TOKYO_R50_SHORT TOKYO_R30_DIR TOKYO_R30_LONG TOKYO_R30_SHORT TOKYO_LAND CMA_LAT CMA_LON CMA_CAT CMA_WIND CMA_PRES HKO_LAT HKO_LON HKO_CAT HKO_WIND HKO_PRES NEWDELHI_LAT NEWDELHI_LON NEWDELHI_GRADE NEWDELHI_WIND NEWDELHI_PRES NEWDELHI_CI NEWDELHI_DP NEWDELHI_POCI REUNION_LAT REUNION_LON REUNION_TYPE REUNION_WIND REUNION_PRES REUNION_TNUM REUNION_CI REUNION_RMW REUNION_R34_NE REUNION_R34_SE REUNION_R34_SW REUNION_R34_NW REUNION_R50_NE REUNION_R50_SE REUNION_R50_SW REUNION_R50_NW REUNION_R64_NE REUNION_R64_SE REUNION_R64_SW REUNION_R64_NW BOM_LAT BOM_LON BOM_TYPE BOM_WIND BOM_PRES BOM_TNUM BOM_CI BOM_RMW BOM_R34_NE BOM_R34_SE BOM_R34_SW BOM_R34_NW BOM_R50_NE BOM_R50_SE BOM_R50_SW BOM_R50_NW BOM_R64_NE BOM_R64_SE BOM_R64_SW BOM_R64_NW BOM_ROCI BOM_POCI BOM_EYE BOM_POS_METHOD BOM_PRES_METHOD NADI_LAT NADI_LON NADI_CAT NADI_WIND NADI_PRES WELLINGTON_LAT WELLINGTON_LON WELLINGTON_WIND WELLINGTON_PRES DS824_LAT DS824_LON DS824_STAGE DS824_WIND DS824_PRES TD9636_LAT TD9636_LON TD9636_STAGE TD9636_WIND TD9636_PRES TD9635_LAT TD9635_LON TD9635_WIND TD9635_PRES TD9635_ROCI NEUMANN_LAT NEUMANN_LON NEUMANN_CLASS NEUMANN_WIND NEUMANN_PRES MLC_LAT MLC_LON MLC_CLASS MLC_WIND MLC_PRES USA_GUST BOM_GUST BOM_GUST_PER REUNION_GUST REUNION_GUST_PER USA_SEAHGT USA_SEARAD_NE USA_SEARAD_SE USA_SEARAD_SW USA_SEARAD_NW STORM_SPEED STORM_DIR
2017104N11130 2017 19 WP MM NOT_NAMED 2017-04-14 06:00:00 TS 10.6500 129.750 main 428 384 __OO__________ -1 10.9000 130.200 0 19 1010 10.4000 129.300 TD 25 1002 8 264
2017104N11130 2017 19 WP MM NOT_NAMED 2017-04-14 09:00:00 TS 10.6063 129.331 main 374 334 __PP__________ -1 10.7853 129.585 0 19 1010 10.4273 129.077 TD 25 1002 9 267
2017104N11130 2017 19 WP MM NOT_NAMED 2017-04-14 12:00:00 TS 10.6000 128.850 main 325 275 __OO__________ -1 10.7000 129.000 0 19 1010 10.5000 128.700 TD 25 1002 10 273
2017104N11130 2017 19 WP MM NOT_NAMED 2017-04-14 15:00:00 TS 10.6564 128.281 main 275 221 __PP__________ -1 10.6699 128.470 0 19 1010 10.6428 128.093 TD 25 1002 11 278
2017104N11130 2017 19 WP MM NOT_NAMED 2017-04-14 18:00:00 TS 10.7500 127.750 main 219 176 __OO__________ -1 10.7000 128.000 0 19 1010 10.8000 127.500 TD 25 1002 9 282
2017104N11130 2017 19 WP MM NOT_NAMED 2017-04-14 21:00:00 TS 10.8460 127.406 main 176 142 __PP__________ -1 10.7849 127.593 0 22 1009 10.9072 127.220 TD 25 1002 7 287
2017104N11130 2017 19 WP MM NOT_NAMED 2017-04-15 00:00:00 TS 10.9500 127.100 main 142 98 __OO__________ -1 10.9000 127.200 1 25 1008 11.0000 127.000 TD 25 1002 7 286
2017104N11130 2017 19 WP MM NOT_NAMED 2017-04-15 03:00:00 TS 11.0538 126.683 main 98 55 __PP__________ -1 10.9925 126.757 1 25 1008 11.1151 126.608 TD 25 1002 9 283
2017104N11130 2017 19 WP MM NOT_NAMED 2017-04-15 06:00:00 TS 11.1500 126.250 main 59 24 __OO__________ -1 11.1000 126.300 1 25 1008 11.2000 126.200 TD 25 1002 8 284
2017104N11130 2017 19 WP MM NOT_NAMED 2017-04-15 09:00:00 TS 11.2474 125.879 main 24 0 __PP__________ -1 11.2648 125.873 1 25 1008 11.2299 125.885 TD 25 1002 8 282
2017104N11130 2017 19 WP MM NOT_NAMED 2017-04-15 12:00:00 TS 11.3000 125.500 main 0 0 __OO__________ -1 11.4000 125.400 1 25 1008 11.2000 125.600 TD 25 1002 8 270
2017104N11130 2017 19 WP MM NOT_NAMED 2017-04-15 15:00:00 TS 11.2536 125.087 main 0 0 __PP__________ -1 11.4225 124.815 1 25 1008 11.0847 125.360 TD 25 1002 9 264
2017104N11130 2017 19 WP MM NOT_NAMED 2017-04-15 18:00:00 TS 11.2000 124.600 main 0 0 __OO__________ -1 11.4000 124.200 1 25 1008 11.0000 125.000 TD 25 1002 11 268
2017104N11130 2017 19 WP MM NOT_NAMED 2017-04-15 21:00:00 TS 11.2202 123.975 main 0 0 __PP__________ -1 11.3699 123.635 1 22 1008 11.0704 124.315 TD 25 1002 12 275
2017104N11130 2017 19 WP MM NOT_NAMED 2017-04-16 00:00:00 TS 11.3000 123.350 main 32 0 __OO__________ -1 11.4000 123.100 0 19 1008 11.2000 123.600 TD 25 1002 11 280
2017104N11130 2017 19 WP MM NOT_NAMED 2017-04-16 03:00:00 TS 11.4083 122.911 main 0 0 __PP__________ -1 11.5699 122.593 0 19 1008 11.2468 123.229 TD 25 1002 9 289
2017104N11130 2017 19 WP MM NOT_NAMED 2017-04-16 06:00:00 TS 11.6000 122.450 main 0 0 __OO__________ -1 11.8000 122.100 0 19 1008 11.4000 122.800 TD 25 1002 12 295
2017104N11130 2017 19 WP MM NOT_NAMED 2017-04-16 09:00:00 TS 11.9175 121.807 main 11 0 __PP__________ -1 11.9997 121.630 0 19 1009 11.8352 121.983 TD 25 1002 17 296
2017104N11130 2017 19 WP MM NOT_NAMED 2017-04-16 12:00:00 MX 12.3444 120.889 main 15 15 O_OO__________ jtwc_wp WP022017 13.1000 119.600 LO 15 1010 -3 1009 140 35 12.2000 121.100 0 19 1010 12.3000 121.000 TD 25 1002 19 292
2017104N11130 2017 19 WP MM NOT_NAMED 2017-04-16 15:00:00 MX 12.6351 120.008 main 86 77 P_PP__________ WP022017 13.3602 119.143 LO 15 1010 -3 1009 140 35 12.3848 120.452 0 19 1010 12.5228 119.997 TD 25 1002 17 290
2017104N11130 2017 19 WP MM NOT_NAMED 2017-04-16 18:00:00 MX 12.9300 119.220 main 131 131 O_OO__________ jtwc_wp WP022017 13.6000 118.700 LO 15 1010 -3 1009 140 35 12.6000 119.700 0 19 1010 12.7000 119.100 TD 25 1002 16 294
2017104N11130 2017 19 WP MM NOT_NAMED 2017-04-16 21:00:00 MX 13.2676 118.539 main 195 195 P_PP__________ WP022017 13.8074 118.285 LO 17 1009 -3 1009 140 35 12.8778 118.828 0 19 1010 12.9673 118.468 TD 25 1002 14 297
2017104N11130 2017 19 WP MM NOT_NAMED 2017-04-17 00:00:00 TS 13.5667 117.956 main 249 249 O_OO__________ jtwc_wp WP022017 14.0000 117.900 DB 20 1009 -3 1009 140 35 13.2000 118.000 0 19 1010 13.3000 118.000 TD 25 1002 12 300
2017104N11130 2017 19 WP MM NOT_NAMED 2017-04-17 03:00:00 TS 13.8824 117.433 main 307 307 P_P___________ WP022017 14.2075 117.505 DB 20 1008 -3 1009 140 35 13.5573 117.360 0 19 1010 TD 11 304
2017104N11130 2017 19 WP MM NOT_NAMED 2017-04-17 06:00:00 TS 14.1500 117.050 main 329 332 O_O___________ jtwc_wp WP022017 14.4000 117.200 DB 20 1007 -3 1009 140 35 13.9000 116.900 0 19 1010 8 308
2017104N11130 2017 19 WP MM NOT_NAMED 2017-04-17 09:00:00 TS 14.3611 116.804 main 351 351 P_P___________ WP022017 14.5574 117.055 DB 20 1007 -3 1009 140 35 14.1648 116.552 0 19 1010 5 320
2017104N11130 2017 19 WP MM NOT_NAMED 2017-04-17 12:00:00 TS 14.5500 116.700 main 355 352 O_O___________ jtwc_wp WP022017 14.7000 117.000 DB 20 1007 -3 1009 140 35 14.4000 116.400 0 19 1010 4 345
2017104N11130 2017 19 WP MM NOT_NAMED 2017-04-17 15:00:00 TS 14.7537 116.687 main 348 344 P_P___________ WP022017 14.8500 116.935 DB 20 1007 -3 1009 107 27 14.6575 116.440 0 19 1010 4 5
2017104N11130 2017 19 WP MM NOT_NAMED 2017-04-17 18:00:00 TS 14.9500 116.750 main 330 326 O_O___________ jtwc_wp WP022017 15.0000 116.900 DB 20 1007 -3 1009 75 20 14.9000 116.600 0 19 1010 4 17
2017104N11130 2017 19 WP MM NOT_NAMED 2017-04-17 21:00:00 TS 15.1100 116.806 main 326 309 P_P___________ WP022017 15.1275 116.863 DB 22 1005 -3 1009 75 20 15.0925 116.750 0 22 1008 4 22
2017104N11130 2017 19 WP MM NOT_NAMED 2017-04-18 00:00:00 TS 15.3000 116.900 main 309 292 O_O___________ jtwc_wp WP022017 15.3000 116.900 TD 25 1004 -1 1009 75 20 15.3000 116.900 1 25 1006 5 24
2017104N11130 2017 19 WP MM NOT_NAMED 2017-04-18 03:00:00 TS 15.5925 117.031 main 292 267 P_P___________ WP022017 15.5925 117.070 TD 25 1004 -1 1009 80 20 15.5925 116.993 1 25 1006 7 26
2017104N11130 2017 19 WP MM NOT_NAMED 2017-04-18 06:00:00 TS 15.9000 117.200 main 267 246 O_O___________ jtwc_wp WP022017 15.9000 117.300 TD 25 1004 -1 1009 85 20 15.9000 117.100 1 25 1006 7 33
2017104N11130 2017 19 WP MM NOT_NAMED 2017-04-18 09:00:00 TS 16.1363 117.404 main 246 226 P_P___________ WP022017 16.1150 117.515 TD 25 1004 -1 1009 85 20 16.1575 117.292 1 25 1006 6 40
2017104N11130 2017 19 WP MM NOT_NAMED 2017-04-18 12:00:00 TS 16.3500 117.600 main 228 218 O_O___________ jtwc_wp WP022017 16.3000 117.700 TD 25 1004 -1 1009 85 20 16.4000 117.500 1 25 1006 5 37
2017104N11130 2017 19 WP MM NOT_NAMED 2017-04-18 15:00:00 TS 16.5637 117.744 main 223 213 P_P___________ WP022017 16.4850 117.823 TD 25 1004 -1 1009 82 22 16.6425 117.665 1 25 1006 5 28
2017104N11130 2017 19 WP MM NOT_NAMED 2017-04-18 18:00:00 TS 16.8000 117.850 main 210 210 O_O___________ jtwc_wp WP022017 16.7000 117.900 TD 25 1004 -1 1009 80 25 16.9000 117.800 1 25 1006 5 19
2017104N11130 2017 19 WP MM NOT_NAMED 2017-04-18 21:00:00 TS 17.0737 117.933 main 221 216 P_P___________ WP022017 16.9625 117.950 TD 25 1004 -1 1009 80 25 17.1850 117.915 1 25 1006 6 13
2017104N11130 2017 19 WP MM NOT_NAMED 2017-04-19 00:00:00 TS 17.4000 118.000 main 227 227 O_O___________ jtwc_wp WP022017 17.3000 118.000 TD 25 1004 -1 1009 80 25 17.5000 118.000 1 25 1006 7 9
2017104N11130 2017 19 WP MM NOT_NAMED 2017-04-19 03:00:00 TS 17.7737 118.045 main 244 234 P_P___________ WP022017 17.7274 118.063 TD 25 1004 -1 1009 80 25 17.8199 118.028 1 25 1007 8 10
2017104N11130 2017 19 WP MM NOT_NAMED 2017-04-19 06:00:00 TS 18.2000 118.150 main 232 232 O_O___________ jtwc_wp WP022017 18.2000 118.200 TD 25 1004 -1 1009 80 25 18.2000 118.100 1 25 1008 9 19
2017104N11130 2017 19 WP MM NOT_NAMED 2017-04-19 09:00:00 TS 18.6674 118.361 main 231 214 P_P___________ WP022017 18.6574 118.440 TD 22 1005 -1 1009 80 25 18.6774 118.283 1 25 1008 11 29
2017104N11130 2017 19 WP MM NOT_NAMED 2017-04-19 12:00:00 TS 19.1500 118.700 main 219 200 O_O___________ jtwc_wp WP022017 19.1000 118.800 DB 20 1007 -3 1009 80 25 19.2000 118.600 1 25 1008 12 38
2017104N11130 2017 19 WP MM NOT_NAMED 2017-04-19 15:00:00 TS 19.6187 119.155 main 199 194 P_P___________ WP022017 19.5075 119.263 DB 20 1007 -3 1009 80 25 19.7300 119.047 1 22 1009 13 46
2017104N11130 2017 19 WP MM NOT_NAMED 2017-04-19 18:00:00 TS 20.0500 119.700 main 203 175 O_O___________ jtwc_wp WP022017 19.9000 119.800 DB 20 1007 -3 1009 80 25 20.2000 119.600 0 19 1010 13 53
2017104N11130 2017 19 WP MM NOT_NAMED 2017-04-19 21:00:00 TS 20.3961 120.253 main 172 134 P_P___________ WP022017 20.2848 120.328 DB 20 1007 -3 1009 80 25 20.5074 120.178 0 19 1010 13 57
2017104N11130 2017 19 WP MM NOT_NAMED 2017-04-20 00:00:00 TS 20.7500 120.850 main 123 98 O_O___________ jtwc_wp WP022017 20.7000 120.900 DB 20 1007 -3 1009 80 25 20.8000 120.800 0 19 1010 14 55
2017104N11130 2017 19 WP MM NOT_NAMED 2017-04-20 03:00:00 TS 21.1955 121.488 main 99 98 P_P___________ WP022017 21.1806 121.531 DB 17 1008 -3 1009 80 25 21.2105 121.444 0 19 1010 15 52
2017104N11130 2017 19 WP MM NOT_NAMED 2017-04-20 06:00:00 TS 21.7000 122.150 main 136 O_O___________ jtwc_wp WP022017 21.7000 122.200 PT 15 1010 -4 1009 80 25 21.7000 122.100 0 19 1010 16 51

デジタル台風データ・検索

IBTrACS Databaseについて

本データベースは、米国NOAAが公開する1842年以降の世界の熱帯低気圧のベストトラックデータアーカイブInternational Best Track Archive for Climate Stewardship (IBTrACS)を、ウェブで閲覧しやすい形式に変換したものです。

最終更新日:2021-11-26